Erie International Tom Ridge Field Erie US
ICAO: KERI
IATA: ERI
Category: Large
Scheduled Services: Yes

Elevation: 732 ft
TransAlt. 18000 ft.

Airport Communications:
APP/DEP:121
ATIS:120.35
CLNC DEL:126.8
CTAF:118.1
GND:121.9
ALTOONA RDO:109.4
TWR:118.1
UNICOM:122.95

KERI Zoom In..

Runways:

(A) RW 02 length 3508 ft width 150 ft
---- / hdg 20

(B) RW 06 length 8420 ft width 150 ft
ILS 110.30 / hdg 64

(C) RW 20 length 3508 ft width 150 ft
---- / hdg 200

(D) RW 24 length 8420 ft width 150 ft
ILS 110.30 / hdg 244

Location; KERI
Day. 22 / Time. 23.51 Zulu
* Altimeter: 29.74
* Temperature: 13° c. 55.4°f.
* Wind from: 170° Speed 09 kn.
Dewpoint: 07° c.
Visibility: 10 Statute Miles.
Clouds: Few 8500 ft.
Clouds: Overcast 11000 ft.

KERI 222351Z 17009KT 10SM FEW085 OVC110 13/07 A2974 RMK AO2 SLP073 60000 T01280072 58018


Wind From 170°
Speed 09 kn.

YouTube Music Video
 
jpsmedia.com for Web Design  worldairports.se 2018   terms of use